createdAt,value
2023-04-18T00:00:02.165Z,1019.2074337133507
2023-04-18T00:15:01.822Z,1019.1125447637297
2023-04-18T00:30:02.450Z,1019.0910967345517
2023-04-18T00:45:02.096Z,1019.039287293743
2023-04-18T01:00:01.718Z,1019.0268679484108
2023-04-18T01:15:02.355Z,1019.0912804846138
2023-04-18T01:30:01.988Z,1019.0634460496747
2023-04-18T01:45:01.623Z,1019.051259334272
2023-04-18T02:00:02.210Z,1018.9407871112503
2023-04-18T02:15:01.824Z,1018.98109959368
2023-04-18T02:30:02.516Z,1018.9854005500129
2023-04-18T02:45:02.169Z,1018.9666484452114
2023-04-18T03:00:01.789Z,1018.9913553873431
2023-04-18T03:15:02.392Z,1019.0474404919343
2023-04-18T03:30:02.038Z,1019.0686031123374
2023-04-18T03:45:01.621Z,1019.2104388150901
2023-04-18T04:00:02.254Z,1019.3102516334797
2023-04-18T04:15:01.887Z,1019.4273779759939
2023-04-18T04:30:02.007Z,1019.4430006844111
2023-04-18T04:45:01.733Z,1019.6364944663194
2023-04-18T05:00:02.473Z,1019.6973667160336
2023-04-18T05:15:02.127Z,1019.5286275458874
2023-04-18T05:30:01.785Z,1019.6198427302231
2023-04-18T05:45:02.416Z,1019.7715962554439
2023-04-18T06:00:02.218Z,1019.9752984997284
2023-04-18T06:15:02.029Z,1020.1347179573837
2023-04-18T06:30:01.725Z,1020.1875245417503
2023-04-18T06:45:02.358Z,1020.3076482511821
2023-04-18T07:00:02.107Z,1020.2936237521795
2023-04-18T07:15:01.756Z,1020.4066530912817
2023-04-18T07:30:02.440Z,1020.5471828808093
2023-04-18T07:45:02.100Z,1020.5396871851812
2023-04-18T08:00:01.746Z,1020.6075786082896
2023-04-18T08:15:02.366Z,1020.6079911937841
2023-04-18T08:30:02.100Z,1020.4875854123857
2023-04-18T08:45:01.761Z,1020.5090706906215
2023-04-18T09:00:02.429Z,1020.6421327026953
2023-04-18T09:15:02.130Z,1020.6905259234859
2023-04-18T09:30:01.854Z,1020.7391447023412
2023-04-18T09:45:01.591Z,1020.6820582892377
2023-04-18T10:00:02.265Z,1020.6912520268555
2023-04-18T10:15:01.923Z,1020.7218007999857
2023-04-18T10:30:01.592Z,1020.6400672361666
2023-04-18T10:45:02.264Z,1020.646311616617
2023-04-18T11:00:02.045Z,1020.5392566965003
2023-04-18T11:15:01.768Z,1020.3484892651524
2023-04-18T11:30:02.471Z,1020.2287184062333
2023-04-18T11:45:02.232Z,1020.2143249635607
2023-04-18T12:00:01.862Z,1020.2127018250513
2023-04-18T12:15:02.530Z,1020.2097005934831
2023-04-18T12:30:02.257Z,1020.1815121359047
2023-04-18T12:45:01.899Z,1019.8495307689013
2023-04-18T13:00:01.605Z,1019.8252212113404
2023-04-18T13:15:02.271Z,1019.7244720976003
2023-04-18T13:30:01.940Z,1019.7340126522981
2023-04-18T13:45:01.629Z,1019.6360112995384
2023-04-18T14:00:02.418Z,1019.598830884888
2023-04-18T14:15:02.062Z,1019.546711685224
2023-04-18T14:30:01.681Z,1019.5010424717578
2023-04-18T14:45:02.295Z,1019.4890104516539
2023-04-18T15:00:01.854Z,1019.4168020980381
2023-04-18T15:15:02.537Z,1019.29469080524
2023-04-18T15:30:02.235Z,1019.3797139223955
2023-04-18T15:45:01.925Z,1019.3083978073705
2023-04-18T16:00:01.643Z,1019.4292742179684
2023-04-18T16:15:02.276Z,1019.4066653292009
2023-04-18T16:30:02.028Z,1019.4874527849721
2023-04-18T16:45:01.789Z,1019.412900616719
2023-04-18T17:00:02.418Z,1019.4411722357811
2023-04-18T17:15:02.087Z,1019.3973433878708
2023-04-18T17:30:01.768Z,1019.5869645917654
2023-04-18T17:45:02.366Z,1019.598847619527
2023-04-18T18:00:02.023Z,1019.7156622048683
2023-04-18T18:15:01.687Z,1019.8420250228846
2023-04-18T18:30:02.383Z,1020.0337186036594
2023-04-18T18:45:02.207Z,1020.0479416978646
2023-04-18T19:00:01.843Z,1020.0031917780402
2023-04-18T19:15:02.435Z,1020.2244078306497
2023-04-18T19:30:02.084Z,1020.3672684076255
2023-04-18T19:45:01.742Z,1020.4837994793904
2023-04-18T20:00:02.376Z,1020.4260466668077
2023-04-18T20:15:01.979Z,1020.4974647780211
2023-04-18T20:30:01.727Z,1020.5002644052465
2023-04-18T20:45:02.381Z,1020.4322061237399
2023-04-18T21:00:02.006Z,1020.4798956081066
2023-04-18T21:15:01.628Z,1020.5374686639678
2023-04-18T21:30:04.601Z,1020.5109182130618
2023-04-18T21:45:01.616Z,1020.5645382390728
2023-04-18T22:00:02.282Z,1020.5727063966925
2023-04-18T22:15:01.966Z,1020.462062848114
2023-04-18T22:30:01.668Z,1020.6070976922639
2023-04-18T22:45:02.342Z,1020.5681004940162
2023-04-18T23:00:02.003Z,1020.5685138619712
2023-04-18T23:15:01.616Z,1020.5866525001059
2023-04-18T23:30:02.310Z,1020.6354224959324
2023-04-18T23:45:01.903Z,1020.6354224959324
